<?xml version="1.0" encoding="UTF-8" standalone="no" ?>
<gpx xmlns="http://www.topografix.com/GPX/1/1" xmlns:xsi="http://www.w3.org/2001/XMLSchema-instance" xsi:schemaLocation="http://www.topografix.com/GPX/1/1 http://www.topografix.com/GPX/1/1/gpx.xsd" version="1.1" creator="VisuGPX - https://www.visugpx.com">
  <metadata>
    <name>R 097 Port bourgenay par les parcs à huitres</name>
  </metadata>
  <trk>
    <name><![CDATA[le veillon.gpx]]></name>
    <trkseg>
      <trkpt lat="46.43539" lon="-1.65874">
        <ele>11.9</ele>
        <time>2018-05-08T12:34:27Z</time>
      </trkpt>
      <trkpt lat="46.43534" lon="-1.6586">
        <ele>23.92579</ele>
        <time>2018-05-08T12:34:36Z</time>
      </trkpt>
      <trkpt lat="46.43533" lon="-1.65858">
        <ele>23.627213</ele>
        <time>2018-05-08T12:34:37Z</time>
      </trkpt>
      <trkpt lat="46.43524" lon="-1.65851">
        <ele>23.804245</ele>
        <time>2018-05-08T12:34:45Z</time>
      </trkpt>
      <trkpt lat="46.43523" lon="-1.6585">
        <ele>23.838594</ele>
        <time>2018-05-08T12:34:46Z</time>
      </trkpt>
      <trkpt lat="46.43513" lon="-1.65847">
        <ele>20.62559</ele>
        <time>2018-05-08T12:34:56Z</time>
      </trkpt>
      <trkpt lat="46.43503" lon="-1.65838">
        <ele>21.47376</ele>
        <time>2018-05-08T12:35:20Z</time>
      </trkpt>
      <trkpt lat="46.43494" lon="-1.65833">
        <ele>21.26502</ele>
        <time>2018-05-08T12:35:31Z</time>
      </trkpt>
      <trkpt lat="46.43486" lon="-1.65826">
        <ele>21.444695</ele>
        <time>2018-05-08T12:35:41Z</time>
      </trkpt>
      <trkpt lat="46.43482" lon="-1.65813">
        <ele>21.339005</ele>
        <time>2018-05-08T12:35:50Z</time>
      </trkpt>
      <trkpt lat="46.43481" lon="-1.658">
        <ele>21.560955</ele>
        <time>2018-05-08T12:35:58Z</time>
      </trkpt>
      <trkpt lat="46.43478" lon="-1.65788">
        <ele>23.540018</ele>
        <time>2018-05-08T12:36:07Z</time>
      </trkpt>
      <trkpt lat="46.43477" lon="-1.65774">
        <ele>22.757906</ele>
        <time>2018-05-08T12:36:16Z</time>
      </trkpt>
      <trkpt lat="46.43475" lon="-1.6576">
        <ele>20.85811</ele>
        <time>2018-05-08T12:36:25Z</time>
      </trkpt>
      <trkpt lat="46.43477" lon="-1.65747">
        <ele>14.635555</ele>
        <time>2018-05-08T12:36:37Z</time>
      </trkpt>
      <trkpt lat="46.43483" lon="-1.65737">
        <ele>24.002417</ele>
        <time>2018-05-08T12:36:51Z</time>
      </trkpt>
      <trkpt lat="46.43483" lon="-1.65736">
        <ele>24.419895</ele>
        <time>2018-05-08T12:36:52Z</time>
      </trkpt>
      <trkpt lat="46.43485" lon="-1.65722">
        <ele>22.710344</ele>
        <time>2018-05-08T12:37:02Z</time>
      </trkpt>
      <trkpt lat="46.43479" lon="-1.65713">
        <ele>23.804245</ele>
        <time>2018-05-08T12:37:12Z</time>
      </trkpt>
      <trkpt lat="46.43478" lon="-1.65699">
        <ele>22.316645</ele>
        <time>2018-05-08T12:37:22Z</time>
      </trkpt>
      <trkpt lat="46.43478" lon="-1.65685">
        <ele>22.895304</ele>
        <time>2018-05-08T12:37:31Z</time>
      </trkpt>
      <trkpt lat="46.4347" lon="-1.65678">
        <ele>21.833109</ele>
        <time>2018-05-08T12:37:41Z</time>
      </trkpt>
      <trkpt lat="46.43462" lon="-1.65667">
        <ele>21.708923</ele>
        <time>2018-05-08T12:37:52Z</time>
      </trkpt>
      <trkpt lat="46.43455" lon="-1.65657">
        <ele>20.942663</ele>
        <time>2018-05-08T12:38:01Z</time>
      </trkpt>
      <trkpt lat="46.43446" lon="-1.65653">
        <ele>20.921524</ele>
        <time>2018-05-08T12:38:13Z</time>
      </trkpt>
      <trkpt lat="46.43438" lon="-1.65649">
        <ele>20.654655</ele>
        <time>2018-05-08T12:38:20Z</time>
      </trkpt>
      <trkpt lat="46.43429" lon="-1.6564">
        <ele>19.851404</ele>
        <time>2018-05-08T12:38:31Z</time>
      </trkpt>
      <trkpt lat="46.43422" lon="-1.65632">
        <ele>21.17254</ele>
        <time>2018-05-08T12:38:41Z</time>
      </trkpt>
      <trkpt lat="46.43414" lon="-1.65627">
        <ele>21.65872</ele>
        <time>2018-05-08T12:38:52Z</time>
      </trkpt>
      <trkpt lat="46.43404" lon="-1.65626">
        <ele>22.226809</ele>
        <time>2018-05-08T12:39:00Z</time>
      </trkpt>
      <trkpt lat="46.43395" lon="-1.65631">
        <ele>17.993885</ele>
        <time>2018-05-08T12:39:13Z</time>
      </trkpt>
      <trkpt lat="46.43387" lon="-1.65638">
        <ele>17.642464</ele>
        <time>2018-05-08T12:39:30Z</time>
      </trkpt>
      <trkpt lat="46.43378" lon="-1.65646">
        <ele>22.062986</ele>
        <time>2018-05-08T12:39:41Z</time>
      </trkpt>
      <trkpt lat="46.43369" lon="-1.65649">
        <ele>22.432905</ele>
        <time>2018-05-08T12:39:51Z</time>
      </trkpt>
      <trkpt lat="46.43363" lon="-1.65647">
        <ele>21.650793</ele>
        <time>2018-05-08T12:40:10Z</time>
      </trkpt>
      <trkpt lat="46.43363" lon="-1.65647">
        <ele>21.650793</ele>
        <time>2018-05-08T12:40:10Z</time>
      </trkpt>
      <trkpt lat="46.43357" lon="-1.65636">
        <ele>21.278233</ele>
        <time>2018-05-08T12:40:25Z</time>
      </trkpt>
      <trkpt lat="46.43354" lon="-1.65622">
        <ele>22.625792</ele>
        <time>2018-05-08T12:40:35Z</time>
      </trkpt>
      <trkpt lat="46.43352" lon="-1.65609">
        <ele>21.061565</ele>
        <time>2018-05-08T12:40:44Z</time>
      </trkpt>
      <trkpt lat="46.43352" lon="-1.65596">
        <ele>19.566038</ele>
        <time>2018-05-08T12:40:54Z</time>
      </trkpt>
      <trkpt lat="46.43351" lon="-1.65582">
        <ele>17.357098</ele>
        <time>2018-05-08T12:41:04Z</time>
      </trkpt>
      <trkpt lat="46.43353" lon="-1.65568">
        <ele>18.16299</ele>
        <time>2018-05-08T12:41:14Z</time>
      </trkpt>
      <trkpt lat="46.43355" lon="-1.65555">
        <ele>18.390226</ele>
        <time>2018-05-08T12:41:22Z</time>
      </trkpt>
      <trkpt lat="46.43358" lon="-1.65542">
        <ele>19.65059</ele>
        <time>2018-05-08T12:41:30Z</time>
      </trkpt>
      <trkpt lat="46.4336" lon="-1.65529">
        <ele>20.55689</ele>
        <time>2018-05-08T12:41:39Z</time>
      </trkpt>
      <trkpt lat="46.43358" lon="-1.65516">
        <ele>19.645306</ele>
        <time>2018-05-08T12:41:48Z</time>
      </trkpt>
      <trkpt lat="46.43351" lon="-1.65505">
        <ele>19.925388</ele>
        <time>2018-05-08T12:41:57Z</time>
      </trkpt>
      <trkpt lat="46.43344" lon="-1.65496">
        <ele>19.402218</ele>
        <time>2018-05-08T12:42:06Z</time>
      </trkpt>
      <trkpt lat="46.43338" lon="-1.65485">
        <ele>18.857908</ele>
        <time>2018-05-08T12:42:15Z</time>
      </trkpt>
      <trkpt lat="46.43332" lon="-1.65476">
        <ele>17.129862</ele>
        <time>2018-05-08T12:42:23Z</time>
      </trkpt>
      <trkpt lat="46.4333" lon="-1.65463">
        <ele>16.966042</ele>
        <time>2018-05-08T12:42:34Z</time>
      </trkpt>
      <trkpt lat="46.43329" lon="-1.65449">
        <ele>16.450798</ele>
        <time>2018-05-08T12:42:45Z</time>
      </trkpt>
      <trkpt lat="46.43328" lon="-1.65435">
        <ele>16.966042</ele>
        <time>2018-05-08T12:42:56Z</time>
      </trkpt>
      <trkpt lat="46.43329" lon="-1.65422">
        <ele>15.835148</ele>
        <time>2018-05-08T12:43:08Z</time>
      </trkpt>
      <trkpt lat="46.43331" lon="-1.65408">
        <ele>15.660757</ele>
        <time>2018-05-08T12:43:20Z</time>
      </trkpt>
      <trkpt lat="46.43334" lon="-1.65395">
        <ele>16.93169</ele>
        <time>2018-05-08T12:43:32Z</time>
      </trkpt>
      <trkpt lat="46.43338" lon="-1.65382">
        <ele>16.51157</ele>
        <time>2018-05-08T12:43:44Z</time>
      </trkpt>
      <trkpt lat="46.43342" lon="-1.6537">
        <ele>16.783724</ele>
        <time>2018-05-08T12:43:54Z</time>
      </trkpt>
      <trkpt lat="46.43344" lon="-1.65356">
        <ele>16.654253</ele>
        <time>2018-05-08T12:44:05Z</time>
      </trkpt>
      <trkpt lat="46.43345" lon="-1.65342">
        <ele>15.89592</ele>
        <time>2018-05-08T12:44:21Z</time>
      </trkpt>
      <trkpt lat="46.4335" lon="-1.65331">
        <ele>17.021528</ele>
        <time>2018-05-08T12:44:32Z</time>
      </trkpt>
      <trkpt lat="46.43359" lon="-1.65331">
        <ele>15.124376</ele>
        <time>2018-05-08T12:44:46Z</time>
      </trkpt>
      <trkpt lat="46.43368" lon="-1.65333">
        <ele>16.38474</ele>
        <time>2018-05-08T12:44:57Z</time>
      </trkpt>
      <trkpt lat="46.43378" lon="-1.65334">
        <ele>16.80222</ele>
        <time>2018-05-08T12:45:10Z</time>
      </trkpt>
      <trkpt lat="46.43387" lon="-1.65336">
        <ele>17.993885</ele>
        <time>2018-05-08T12:45:24Z</time>
      </trkpt>
      <trkpt lat="46.43396" lon="-1.65338">
        <ele>18.411366</ele>
        <time>2018-05-08T12:45:37Z</time>
      </trkpt>
      <trkpt lat="46.43405" lon="-1.65335">
        <ele>20.342867</ele>
        <time>2018-05-08T12:45:49Z</time>
      </trkpt>
      <trkpt lat="46.43405" lon="-1.65322">
        <ele>20.049574</ele>
        <time>2018-05-08T12:46:10Z</time>
      </trkpt>
      <trkpt lat="46.43406" lon="-1.6532">
        <ele>20.097136</ele>
        <time>2018-05-08T12:46:11Z</time>
      </trkpt>
      <trkpt lat="46.43401" lon="-1.65308">
        <ele>19.029657</ele>
        <time>2018-05-08T12:46:25Z</time>
      </trkpt>
      <trkpt lat="46.43401" lon="-1.65295">
        <ele>20.316444</ele>
        <time>2018-05-08T12:46:34Z</time>
      </trkpt>
      <trkpt lat="46.43402" lon="-1.65281">
        <ele>20.070713</ele>
        <time>2018-05-08T12:46:45Z</time>
      </trkpt>
      <trkpt lat="46.43401" lon="-1.65268">
        <ele>20.773558</ele>
        <time>2018-05-08T12:46:55Z</time>
      </trkpt>
      <trkpt lat="46.43401" lon="-1.65254">
        <ele>18.503843</ele>
        <time>2018-05-08T12:47:08Z</time>
      </trkpt>
      <trkpt lat="46.43402" lon="-1.65241">
        <ele>19.529047</ele>
        <time>2018-05-08T12:47:18Z</time>
      </trkpt>
      <trkpt lat="46.43403" lon="-1.65228">
        <ele>19.669086</ele>
        <time>2018-05-08T12:47:31Z</time>
      </trkpt>
      <trkpt lat="46.43404" lon="-1.65214">
        <ele>19.402218</ele>
        <time>2018-05-08T12:47:42Z</time>
      </trkpt>
      <trkpt lat="46.43404" lon="-1.65201">
        <ele>19.539616</ele>
        <time>2018-05-08T12:47:53Z</time>
      </trkpt>
      <trkpt lat="46.43406" lon="-1.65187">
        <ele>19.243681</ele>
        <time>2018-05-08T12:48:04Z</time>
      </trkpt>
      <trkpt lat="46.43405" lon="-1.65173">
        <ele>19.732502</ele>
        <time>2018-05-08T12:48:15Z</time>
      </trkpt>
      <trkpt lat="46.43405" lon="-1.6516">
        <ele>19.49734</ele>
        <time>2018-05-08T12:48:26Z</time>
      </trkpt>
      <trkpt lat="46.43407" lon="-1.65146">
        <ele>19.029657</ele>
        <time>2018-05-08T12:48:40Z</time>
      </trkpt>
      <trkpt lat="46.43409" lon="-1.65132">
        <ele>17.81421</ele>
        <time>2018-05-08T12:48:52Z</time>
      </trkpt>
      <trkpt lat="46.43412" lon="-1.65119">
        <ele>18.66238</ele>
        <time>2018-05-08T12:49:05Z</time>
      </trkpt>
      <trkpt lat="46.43415" lon="-1.65105">
        <ele>17.793072</ele>
        <time>2018-05-08T12:49:17Z</time>
      </trkpt>
      <trkpt lat="46.43418" lon="-1.65092">
        <ele>17.579048</ele>
        <time>2018-05-08T12:49:30Z</time>
      </trkpt>
      <trkpt lat="46.43425" lon="-1.65082">
        <ele>17.79043</ele>
        <time>2018-05-08T12:49:42Z</time>
      </trkpt>
      <trkpt lat="46.43431" lon="-1.65072">
        <ele>17.100796</ele>
        <time>2018-05-08T12:49:53Z</time>
      </trkpt>
      <trkpt lat="46.43438" lon="-1.65062">
        <ele>16.321325</ele>
        <time>2018-05-08T12:50:02Z</time>
      </trkpt>
      <trkpt lat="46.43443" lon="-1.65051">
        <ele>16.598764</ele>
        <time>2018-05-08T12:50:12Z</time>
      </trkpt>
      <trkpt lat="46.43449" lon="-1.6504">
        <ele>17.25405</ele>
        <time>2018-05-08T12:50:23Z</time>
      </trkpt>
      <trkpt lat="46.43454" lon="-1.65028">
        <ele>15.938196</ele>
        <time>2018-05-08T12:50:34Z</time>
      </trkpt>
      <trkpt lat="46.43457" lon="-1.65015">
        <ele>16.80222</ele>
        <time>2018-05-08T12:50:46Z</time>
      </trkpt>
      <trkpt lat="46.43462" lon="-1.65002">
        <ele>17.351812</ele>
        <time>2018-05-08T12:51:07Z</time>
      </trkpt>
      <trkpt lat="46.43467" lon="-1.64991">
        <ele>17.539413</ele>
        <time>2018-05-08T12:51:17Z</time>
      </trkpt>
      <trkpt lat="46.43469" lon="-1.64978">
        <ele>16.313398</ele>
        <time>2018-05-08T12:51:29Z</time>
      </trkpt>
      <trkpt lat="46.43468" lon="-1.64964">
        <ele>15.565636</ele>
        <time>2018-05-08T12:51:40Z</time>
      </trkpt>
      <trkpt lat="46.43466" lon="-1.64951">
        <ele>15.113807</ele>
        <time>2018-05-08T12:51:49Z</time>
      </trkpt>
      <trkpt lat="46.43459" lon="-1.64942">
        <ele>14.741246</ele>
        <time>2018-05-08T12:52:00Z</time>
      </trkpt>
      <trkpt lat="46.43457" lon="-1.64929">
        <ele>14.912994</ele>
        <time>2018-05-08T12:52:09Z</time>
      </trkpt>
      <trkpt lat="46.43457" lon="-1.64914">
        <ele>15.240636</ele>
        <time>2018-05-08T12:52:20Z</time>
      </trkpt>
      <trkpt lat="46.43454" lon="-1.64902">
        <ele>15.016043</ele>
        <time>2018-05-08T12:52:28Z</time>
      </trkpt>
      <trkpt lat="46.43454" lon="-1.64887">
        <ele>15.142872</ele>
        <time>2018-05-08T12:52:38Z</time>
      </trkpt>
      <trkpt lat="46.43455" lon="-1.64873">
        <ele>14.915636</ele>
        <time>2018-05-08T12:52:48Z</time>
      </trkpt>
      <trkpt lat="46.43454" lon="-1.6486">
        <ele>15.536571</ele>
        <time>2018-05-08T12:52:57Z</time>
      </trkpt>
      <trkpt lat="46.43455" lon="-1.64846">
        <ele>15.113807</ele>
        <time>2018-05-08T12:53:07Z</time>
      </trkpt>
      <trkpt lat="46.43456" lon="-1.64832">
        <ele>15.132302</ele>
        <time>2018-05-08T12:53:18Z</time>
      </trkpt>
      <trkpt lat="46.43455" lon="-1.64818">
        <ele>14.910352</ele>
        <time>2018-05-08T12:53:28Z</time>
      </trkpt>
      <trkpt lat="46.43455" lon="-1.64804">
        <ele>14.52458</ele>
        <time>2018-05-08T12:53:38Z</time>
      </trkpt>
      <trkpt lat="46.43453" lon="-1.64791">
        <ele>14.482304</ele>
        <time>2018-05-08T12:53:48Z</time>
      </trkpt>
      <trkpt lat="46.43452" lon="-1.64778">
        <ele>14.696327</ele>
        <time>2018-05-08T12:53:58Z</time>
      </trkpt>
      <trkpt lat="46.4345" lon="-1.64764">
        <ele>15.050392</ele>
        <time>2018-05-08T12:54:08Z</time>
      </trkpt>
      <trkpt lat="46.43448" lon="-1.64751">
        <ele>15.288197</ele>
        <time>2018-05-08T12:54:18Z</time>
      </trkpt>
      <trkpt lat="46.43444" lon="-1.64739">
        <ele>15.190433</ele>
        <time>2018-05-08T12:54:27Z</time>
      </trkpt>
      <trkpt lat="46.43443" lon="-1.64725">
        <ele>16.374172</ele>
        <time>2018-05-08T12:54:38Z</time>
      </trkpt>
      <trkpt lat="46.43435" lon="-1.64716">
        <ele>15.718887</ele>
        <time>2018-05-08T12:54:50Z</time>
      </trkpt>
      <trkpt lat="46.43428" lon="-1.64706">
        <ele>14.831083</ele>
        <time>2018-05-08T12:55:01Z</time>
      </trkpt>
      <trkpt lat="46.43419" lon="-1.64693">
        <ele>15.956692</ele>
        <time>2018-05-08T12:55:13Z</time>
      </trkpt>
      <trkpt lat="46.43414" lon="-1.64682">
        <ele>14.609133</ele>
        <time>2018-05-08T12:55:24Z</time>
      </trkpt>
      <trkpt lat="46.4341" lon="-1.6467">
        <ele>15.269701</ele>
        <time>2018-05-08T12:55:35Z</time>
      </trkpt>
      <trkpt lat="46.43405" lon="-1.64658">
        <ele>15.412384</ele>
        <time>2018-05-08T12:55:45Z</time>
      </trkpt>
      <trkpt lat="46.43401" lon="-1.64645">
        <ele>15.565636</ele>
        <time>2018-05-08T12:55:56Z</time>
      </trkpt>
      <trkpt lat="46.43398" lon="-1.64632">
        <ele>15.626408</ele>
        <time>2018-05-08T12:56:06Z</time>
      </trkpt>
      <trkpt lat="46.43393" lon="-1.64619">
        <ele>15.293482</ele>
        <time>2018-05-08T12:56:16Z</time>
      </trkpt>
      <trkpt lat="46.43387" lon="-1.64608">
        <ele>15.761164</ele>
        <time>2018-05-08T12:56:26Z</time>
      </trkpt>
      <trkpt lat="46.43382" lon="-1.64597">
        <ele>15.216855</ele>
        <time>2018-05-08T12:56:37Z</time>
      </trkpt>
      <trkpt lat="46.43376" lon="-1.64586">
        <ele>16.3821</ele>
        <time>2018-05-08T12:56:46Z</time>
      </trkpt>
      <trkpt lat="46.4337" lon="-1.64576">
        <ele>16.633114</ele>
        <time>2018-05-08T12:56:56Z</time>
      </trkpt>
      <trkpt lat="46.43367" lon="-1.64563">
        <ele>15.658115</ele>
        <time>2018-05-08T12:57:04Z</time>
      </trkpt>
      <trkpt lat="46.43362" lon="-1.64551">
        <ele>15.594701</ele>
        <time>2018-05-08T12:57:15Z</time>
      </trkpt>
      <trkpt lat="46.43356" lon="-1.64539">
        <ele>15.391246</ele>
        <time>2018-05-08T12:57:25Z</time>
      </trkpt>
      <trkpt lat="46.43353" lon="-1.64527">
        <ele>15.214213</ele>
        <time>2018-05-08T12:57:34Z</time>
      </trkpt>
      <trkpt lat="46.43349" lon="-1.64515">
        <ele>15.206286</ele>
        <time>2018-05-08T12:57:43Z</time>
      </trkpt>
      <trkpt lat="46.43345" lon="-1.64503">
        <ele>14.841653</ele>
        <time>2018-05-08T12:57:54Z</time>
      </trkpt>
      <trkpt lat="46.43342" lon="-1.6449">
        <ele>15.425595</ele>
        <time>2018-05-08T12:58:03Z</time>
      </trkpt>
      <trkpt lat="46.43341" lon="-1.6448">
        <ele>16.313398</ele>
        <time>2018-05-08T12:58:13Z</time>
      </trkpt>
      <trkpt lat="46.43339" lon="-1.64462">
        <ele>3</ele>
        <time>2018-05-08T12:58:26Z</time>
      </trkpt>
      <trkpt lat="46.43349" lon="-1.64462">
        <ele>3</ele>
        <time>2018-05-08T12:58:33Z</time>
      </trkpt>
      <trkpt lat="46.43359" lon="-1.64463">
        <ele>3</ele>
        <time>2018-05-08T12:58:43Z</time>
      </trkpt>
      <trkpt lat="46.43369" lon="-1.64461">
        <ele>3</ele>
        <time>2018-05-08T12:58:51Z</time>
      </trkpt>
      <trkpt lat="46.43377" lon="-1.64453">
        <ele>3</ele>
        <time>2018-05-08T12:59:05Z</time>
      </trkpt>
      <trkpt lat="46.4338" lon="-1.64452">
        <ele>3</ele>
        <time>2018-05-08T12:59:26Z</time>
      </trkpt>
      <trkpt lat="46.4338" lon="-1.64452">
        <ele>3</ele>
        <time>2018-05-08T12:59:26Z</time>
      </trkpt>
      <trkpt lat="46.43374" lon="-1.64453">
        <ele>3</ele>
        <time>2018-05-08T12:59:41Z</time>
      </trkpt>
      <trkpt lat="46.43374" lon="-1.64453">
        <ele>3</ele>
        <time>2018-05-08T12:59:41Z</time>
      </trkpt>
      <trkpt lat="46.43383" lon="-1.64454">
        <ele>3</ele>
        <time>2018-05-08T13:03:05Z</time>
      </trkpt>
      <trkpt lat="46.43391" lon="-1.64462">
        <ele>3</ele>
        <time>2018-05-08T13:03:16Z</time>
      </trkpt>
      <trkpt lat="46.43398" lon="-1.64472">
        <ele>3</ele>
        <time>2018-05-08T13:03:26Z</time>
      </trkpt>
      <trkpt lat="46.43406" lon="-1.6448">
        <ele>3</ele>
        <time>2018-05-08T13:03:36Z</time>
      </trkpt>
      <trkpt lat="46.43412" lon="-1.6449">
        <ele>3</ele>
        <time>2018-05-08T13:03:46Z</time>
      </trkpt>
      <trkpt lat="46.43421" lon="-1.64497">
        <ele>3.1</ele>
        <time>2018-05-08T13:03:55Z</time>
      </trkpt>
      <trkpt lat="46.4343" lon="-1.64502">
        <ele>3.6</ele>
        <time>2018-05-08T13:04:03Z</time>
      </trkpt>
      <trkpt lat="46.43438" lon="-1.64509">
        <ele>3.8</ele>
        <time>2018-05-08T13:04:12Z</time>
      </trkpt>
      <trkpt lat="46.43448" lon="-1.64515">
        <ele>4.1</ele>
        <time>2018-05-08T13:04:22Z</time>
      </trkpt>
      <trkpt lat="46.43457" lon="-1.64519">
        <ele>4.2</ele>
        <time>2018-05-08T13:04:31Z</time>
      </trkpt>
      <trkpt lat="46.43466" lon="-1.64521">
        <ele>4.4</ele>
        <time>2018-05-08T13:04:39Z</time>
      </trkpt>
      <trkpt lat="46.43475" lon="-1.64526">
        <ele>4.5</ele>
        <time>2018-05-08T13:04:49Z</time>
      </trkpt>
      <trkpt lat="46.43485" lon="-1.64527">
        <ele>4.6</ele>
        <time>2018-05-08T13:04:57Z</time>
      </trkpt>
      <trkpt lat="46.43494" lon="-1.64527">
        <ele>4.6</ele>
        <time>2018-05-08T13:05:05Z</time>
      </trkpt>
      <trkpt lat="46.43504" lon="-1.6453">
        <ele>4.9</ele>
        <time>2018-05-08T13:05:15Z</time>
      </trkpt>
      <trkpt lat="46.43513" lon="-1.64531">
        <ele>4.9</ele>
        <time>2018-05-08T13:05:24Z</time>
      </trkpt>
      <trkpt lat="46.43522" lon="-1.6453">
        <ele>4.8</ele>
        <time>2018-05-08T13:05:32Z</time>
      </trkpt>
      <trkpt lat="46.43532" lon="-1.64533">
        <ele>4.7</ele>
        <time>2018-05-08T13:05:43Z</time>
      </trkpt>
      <trkpt lat="46.43541" lon="-1.64534">
        <ele>4.6</ele>
        <time>2018-05-08T13:05:52Z</time>
      </trkpt>
      <trkpt lat="46.43551" lon="-1.64535">
        <ele>4.5</ele>
        <time>2018-05-08T13:06:00Z</time>
      </trkpt>
      <trkpt lat="46.4356" lon="-1.6454">
        <ele>4.3</ele>
        <time>2018-05-08T13:06:09Z</time>
      </trkpt>
      <trkpt lat="46.43567" lon="-1.64549">
        <ele>4</ele>
        <time>2018-05-08T13:06:19Z</time>
      </trkpt>
      <trkpt lat="46.43567" lon="-1.64562">
        <ele>3.7</ele>
        <time>2018-05-08T13:06:29Z</time>
      </trkpt>
      <trkpt lat="46.43567" lon="-1.64576">
        <ele>3.4</ele>
        <time>2018-05-08T13:06:37Z</time>
      </trkpt>
      <trkpt lat="46.43568" lon="-1.64592">
        <ele>4.1</ele>
        <time>2018-05-08T13:06:47Z</time>
      </trkpt>
      <trkpt lat="46.4357" lon="-1.64606">
        <ele>4.7</ele>
        <time>2018-05-08T13:06:54Z</time>
      </trkpt>
      <trkpt lat="46.43575" lon="-1.64623">
        <ele>5.3</ele>
        <time>2018-05-08T13:07:06Z</time>
      </trkpt>
      <trkpt lat="46.43577" lon="-1.64636">
        <ele>5.6</ele>
        <time>2018-05-08T13:07:13Z</time>
      </trkpt>
      <trkpt lat="46.43581" lon="-1.64648">
        <ele>5.8</ele>
        <time>2018-05-08T13:07:23Z</time>
      </trkpt>
      <trkpt lat="46.43586" lon="-1.64662">
        <ele>5.6</ele>
        <time>2018-05-08T13:07:34Z</time>
      </trkpt>
      <trkpt lat="46.43589" lon="-1.64675">
        <ele>6</ele>
        <time>2018-05-08T13:07:42Z</time>
      </trkpt>
      <trkpt lat="46.43592" lon="-1.64689">
        <ele>6.1</ele>
        <time>2018-05-08T13:07:51Z</time>
      </trkpt>
      <trkpt lat="46.43598" lon="-1.647">
        <ele>6.2</ele>
        <time>2018-05-08T13:07:59Z</time>
      </trkpt>
      <trkpt lat="46.43601" lon="-1.64713">
        <ele>6.4</ele>
        <time>2018-05-08T13:08:10Z</time>
      </trkpt>
      <trkpt lat="46.43606" lon="-1.64725">
        <ele>6.5</ele>
        <time>2018-05-08T13:08:18Z</time>
      </trkpt>
      <trkpt lat="46.43611" lon="-1.64738">
        <ele>6.7</ele>
        <time>2018-05-08T13:08:27Z</time>
      </trkpt>
      <trkpt lat="46.43614" lon="-1.64751">
        <ele>8.6</ele>
        <time>2018-05-08T13:08:35Z</time>
      </trkpt>
      <trkpt lat="46.43622" lon="-1.64758">
        <ele>8.7</ele>
        <time>2018-05-08T13:08:43Z</time>
      </trkpt>
      <trkpt lat="46.43631" lon="-1.64763">
        <ele>8.7</ele>
        <time>2018-05-08T13:08:51Z</time>
      </trkpt>
      <trkpt lat="46.43641" lon="-1.64761">
        <ele>8.5</ele>
        <time>2018-05-08T13:09:00Z</time>
      </trkpt>
      <trkpt lat="46.43649" lon="-1.64754">
        <ele>8.1</ele>
        <time>2018-05-08T13:09:08Z</time>
      </trkpt>
      <trkpt lat="46.43656" lon="-1.64744">
        <ele>6.6</ele>
        <time>2018-05-08T13:09:16Z</time>
      </trkpt>
      <trkpt lat="46.43663" lon="-1.64733">
        <ele>6.4</ele>
        <time>2018-05-08T13:09:26Z</time>
      </trkpt>
      <trkpt lat="46.43667" lon="-1.64721">
        <ele>7.9</ele>
        <time>2018-05-08T13:09:35Z</time>
      </trkpt>
      <trkpt lat="46.43671" lon="-1.64709">
        <ele>7.7</ele>
        <time>2018-05-08T13:09:45Z</time>
      </trkpt>
      <trkpt lat="46.43679" lon="-1.647">
        <ele>7.6</ele>
        <time>2018-05-08T13:09:53Z</time>
      </trkpt>
      <trkpt lat="46.43688" lon="-1.64694">
        <ele>7.7</ele>
        <time>2018-05-08T13:10:00Z</time>
      </trkpt>
      <trkpt lat="46.43695" lon="-1.64686">
        <ele>7.9</ele>
        <time>2018-05-08T13:10:07Z</time>
      </trkpt>
      <trkpt lat="46.43703" lon="-1.64678">
        <ele>8.3</ele>
        <time>2018-05-08T13:10:16Z</time>
      </trkpt>
      <trkpt lat="46.4371" lon="-1.64669">
        <ele>8.7</ele>
        <time>2018-05-08T13:10:23Z</time>
      </trkpt>
      <trkpt lat="46.43717" lon="-1.6466">
        <ele>8.1</ele>
        <time>2018-05-08T13:10:32Z</time>
      </trkpt>
      <trkpt lat="46.43721" lon="-1.64649">
        <ele>8.3</ele>
        <time>2018-05-08T13:10:41Z</time>
      </trkpt>
      <trkpt lat="46.43729" lon="-1.64641">
        <ele>8.5</ele>
        <time>2018-05-08T13:10:51Z</time>
      </trkpt>
      <trkpt lat="46.43737" lon="-1.64633">
        <ele>8.5</ele>
        <time>2018-05-08T13:11:02Z</time>
      </trkpt>
      <trkpt lat="46.43744" lon="-1.64625">
        <ele>8.2</ele>
        <time>2018-05-08T13:11:12Z</time>
      </trkpt>
      <trkpt lat="46.43752" lon="-1.64617">
        <ele>10.2</ele>
        <time>2018-05-08T13:11:21Z</time>
      </trkpt>
      <trkpt lat="46.4376" lon="-1.64608">
        <ele>9.9</ele>
        <time>2018-05-08T13:11:28Z</time>
      </trkpt>
      <trkpt lat="46.43766" lon="-1.64598">
        <ele>9.5</ele>
        <time>2018-05-08T13:11:36Z</time>
      </trkpt>
      <trkpt lat="46.43771" lon="-1.64585">
        <ele>9.4</ele>
        <time>2018-05-08T13:11:44Z</time>
      </trkpt>
      <trkpt lat="46.43776" lon="-1.64574">
        <ele>7.3</ele>
        <time>2018-05-08T13:11:53Z</time>
      </trkpt>
      <trkpt lat="46.43784" lon="-1.64566">
        <ele>7.4</ele>
        <time>2018-05-08T13:12:00Z</time>
      </trkpt>
      <trkpt lat="46.43793" lon="-1.64561">
        <ele>7.6</ele>
        <time>2018-05-08T13:12:09Z</time>
      </trkpt>
      <trkpt lat="46.43803" lon="-1.64558">
        <ele>7.9</ele>
        <time>2018-05-08T13:12:19Z</time>
      </trkpt>
      <trkpt lat="46.43813" lon="-1.64556">
        <ele>8.2</ele>
        <time>2018-05-08T13:12:27Z</time>
      </trkpt>
      <trkpt lat="46.43822" lon="-1.64551">
        <ele>8.2</ele>
        <time>2018-05-08T13:12:35Z</time>
      </trkpt>
      <trkpt lat="46.43831" lon="-1.64543">
        <ele>8</ele>
        <time>2018-05-08T13:12:44Z</time>
      </trkpt>
      <trkpt lat="46.43837" lon="-1.64533">
        <ele>9.9</ele>
        <time>2018-05-08T13:12:53Z</time>
      </trkpt>
      <trkpt lat="46.43842" lon="-1.6452">
        <ele>9.3</ele>
        <time>2018-05-08T13:13:02Z</time>
      </trkpt>
      <trkpt lat="46.4384" lon="-1.64506">
        <ele>8.2</ele>
        <time>2018-05-08T13:13:10Z</time>
      </trkpt>
      <trkpt lat="46.43838" lon="-1.64492">
        <ele>7.5</ele>
        <time>2018-05-08T13:13:19Z</time>
      </trkpt>
      <trkpt lat="46.43835" lon="-1.64477">
        <ele>7.8</ele>
        <time>2018-05-08T13:13:28Z</time>
      </trkpt>
      <trkpt lat="46.43832" lon="-1.64465">
        <ele>6.1</ele>
        <time>2018-05-08T13:13:37Z</time>
      </trkpt>
      <trkpt lat="46.43831" lon="-1.64451">
        <ele>6.1</ele>
        <time>2018-05-08T13:13:47Z</time>
      </trkpt>
      <trkpt lat="46.43826" lon="-1.64438">
        <ele>6.3</ele>
        <time>2018-05-08T13:13:56Z</time>
      </trkpt>
      <trkpt lat="46.43825" lon="-1.64425">
        <ele>6.6</ele>
        <time>2018-05-08T13:14:04Z</time>
      </trkpt>
      <trkpt lat="46.43822" lon="-1.64412">
        <ele>6.9</ele>
        <time>2018-05-08T13:14:12Z</time>
      </trkpt>
      <trkpt lat="46.43819" lon="-1.644">
        <ele>6.8</ele>
        <time>2018-05-08T13:14:21Z</time>
      </trkpt>
      <trkpt lat="46.43813" lon="-1.64388">
        <ele>6.6</ele>
        <time>2018-05-08T13:14:28Z</time>
      </trkpt>
      <trkpt lat="46.43813" lon="-1.64375">
        <ele>6.5</ele>
        <time>2018-05-08T13:14:39Z</time>
      </trkpt>
      <trkpt lat="46.43808" lon="-1.64363">
        <ele>6.4</ele>
        <time>2018-05-08T13:14:50Z</time>
      </trkpt>
      <trkpt lat="46.43807" lon="-1.64349">
        <ele>6.3</ele>
        <time>2018-05-08T13:14:58Z</time>
      </trkpt>
      <trkpt lat="46.43807" lon="-1.64335">
        <ele>6.2</ele>
        <time>2018-05-08T13:15:07Z</time>
      </trkpt>
      <trkpt lat="46.43802" lon="-1.64324">
        <ele>5.4</ele>
        <time>2018-05-08T13:15:15Z</time>
      </trkpt>
      <trkpt lat="46.43802" lon="-1.6431">
        <ele>5.4</ele>
        <time>2018-05-08T13:15:24Z</time>
      </trkpt>
      <trkpt lat="46.43802" lon="-1.64297">
        <ele>5.3</ele>
        <time>2018-05-08T13:15:34Z</time>
      </trkpt>
      <trkpt lat="46.43802" lon="-1.64296">
        <ele>5.3</ele>
        <time>2018-05-08T13:15:36Z</time>
      </trkpt>
      <trkpt lat="46.43802" lon="-1.64296">
        <ele>5.3</ele>
        <time>2018-05-08T13:15:36Z</time>
      </trkpt>
      <trkpt lat="46.43805" lon="-1.64283">
        <ele>5.4</ele>
        <time>2018-05-08T13:16:00Z</time>
      </trkpt>
      <trkpt lat="46.43807" lon="-1.6428">
        <ele>5.5</ele>
        <time>2018-05-08T13:16:05Z</time>
      </trkpt>
      <trkpt lat="46.43807" lon="-1.6428">
        <ele>5.5</ele>
        <time>2018-05-08T13:16:05Z</time>
      </trkpt>
      <trkpt lat="46.43805" lon="-1.64272">
        <ele>5.5</ele>
        <time>2018-05-08T13:16:23Z</time>
      </trkpt>
      <trkpt lat="46.43805" lon="-1.64272">
        <ele>5.5</ele>
        <time>2018-05-08T13:16:23Z</time>
      </trkpt>
      <trkpt lat="46.43808" lon="-1.64259">
        <ele>5.8</ele>
        <time>2018-05-08T13:19:26Z</time>
      </trkpt>
      <trkpt lat="46.43808" lon="-1.64249">
        <ele>5.6</ele>
        <time>2018-05-08T13:19:41Z</time>
      </trkpt>
      <trkpt lat="46.43808" lon="-1.64249">
        <ele>5.6</ele>
        <time>2018-05-08T13:19:41Z</time>
      </trkpt>
      <trkpt lat="46.43808" lon="-1.64236">
        <ele>5.4</ele>
        <time>2018-05-08T13:20:01Z</time>
      </trkpt>
      <trkpt lat="46.43808" lon="-1.64222">
        <ele>5</ele>
        <time>2018-05-08T13:20:09Z</time>
      </trkpt>
      <trkpt lat="46.43809" lon="-1.64209">
        <ele>4.8</ele>
        <time>2018-05-08T13:20:18Z</time>
      </trkpt>
      <trkpt lat="46.4381" lon="-1.64195">
        <ele>4.5</ele>
        <time>2018-05-08T13:20:27Z</time>
      </trkpt>
      <trkpt lat="46.43818" lon="-1.64187">
        <ele>4.4</ele>
        <time>2018-05-08T13:20:40Z</time>
      </trkpt>
      <trkpt lat="46.43826" lon="-1.64181">
        <ele>4.3</ele>
        <time>2018-05-08T13:20:48Z</time>
      </trkpt>
      <trkpt lat="46.43836" lon="-1.64178">
        <ele>4.2</ele>
        <time>2018-05-08T13:20:54Z</time>
      </trkpt>
      <trkpt lat="46.43844" lon="-1.64172">
        <ele>4.1</ele>
        <time>2018-05-08T13:21:08Z</time>
      </trkpt>
      <trkpt lat="46.43853" lon="-1.64169">
        <ele>4.1</ele>
        <time>2018-05-08T13:21:18Z</time>
      </trkpt>
      <trkpt lat="46.43863" lon="-1.64171">
        <ele>4</ele>
        <time>2018-05-08T13:21:27Z</time>
      </trkpt>
      <trkpt lat="46.43871" lon="-1.6418">
        <ele>3.9</ele>
        <time>2018-05-08T13:21:37Z</time>
      </trkpt>
      <trkpt lat="46.43876" lon="-1.64191">
        <ele>4</ele>
        <time>2018-05-08T13:21:45Z</time>
      </trkpt>
      <trkpt lat="46.4388" lon="-1.64204">
        <ele>4.1</ele>
        <time>2018-05-08T13:21:54Z</time>
      </trkpt>
      <trkpt lat="46.43883" lon="-1.64217">
        <ele>4.2</ele>
        <time>2018-05-08T13:22:04Z</time>
      </trkpt>
      <trkpt lat="46.43887" lon="-1.64229">
        <ele>4.2</ele>
        <time>2018-05-08T13:22:12Z</time>
      </trkpt>
      <trkpt lat="46.43889" lon="-1.64243">
        <ele>4.2</ele>
        <time>2018-05-08T13:22:21Z</time>
      </trkpt>
      <trkpt lat="46.43892" lon="-1.64256">
        <ele>4.8</ele>
        <time>2018-05-08T13:22:31Z</time>
      </trkpt>
      <trkpt lat="46.43894" lon="-1.6427">
        <ele>4.9</ele>
        <time>2018-05-08T13:22:39Z</time>
      </trkpt>
      <trkpt lat="46.43897" lon="-1.64283">
        <ele>5</ele>
        <time>2018-05-08T13:22:47Z</time>
      </trkpt>
      <trkpt lat="46.439" lon="-1.64296">
        <ele>5.1</ele>
        <time>2018-05-08T13:22:57Z</time>
      </trkpt>
      <trkpt lat="46.43901" lon="-1.6431">
        <ele>5.2</ele>
        <time>2018-05-08T13:23:07Z</time>
      </trkpt>
      <trkpt lat="46.43903" lon="-1.64325">
        <ele>5.2</ele>
        <time>2018-05-08T13:23:17Z</time>
      </trkpt>
      <trkpt lat="46.43907" lon="-1.64338">
        <ele>5.5</ele>
        <time>2018-05-08T13:23:26Z</time>
      </trkpt>
      <trkpt lat="46.43908" lon="-1.64352">
        <ele>5.9</ele>
        <time>2018-05-08T13:23:35Z</time>
      </trkpt>
      <trkpt lat="46.43911" lon="-1.64365">
        <ele>6.2</ele>
        <time>2018-05-08T13:23:45Z</time>
      </trkpt>
      <trkpt lat="46.43914" lon="-1.64378">
        <ele>6.6</ele>
        <time>2018-05-08T13:23:53Z</time>
      </trkpt>
      <trkpt lat="46.43917" lon="-1.64392">
        <ele>6.3</ele>
        <time>2018-05-08T13:24:03Z</time>
      </trkpt>
      <trkpt lat="46.4392" lon="-1.64405">
        <ele>6.9</ele>
        <time>2018-05-08T13:24:12Z</time>
      </trkpt>
      <trkpt lat="46.43924" lon="-1.64419">
        <ele>7.5</ele>
        <time>2018-05-08T13:24:20Z</time>
      </trkpt>
      <trkpt lat="46.43927" lon="-1.64432">
        <ele>7.2</ele>
        <time>2018-05-08T13:24:30Z</time>
      </trkpt>
      <trkpt lat="46.43932" lon="-1.64443">
        <ele>7.1</ele>
        <time>2018-05-08T13:24:38Z</time>
      </trkpt>
      <trkpt lat="46.43936" lon="-1.64455">
        <ele>7.1</ele>
        <time>2018-05-08T13:24:47Z</time>
      </trkpt>
      <trkpt lat="46.43938" lon="-1.64468">
        <ele>7.4</ele>
        <time>2018-05-08T13:24:56Z</time>
      </trkpt>
      <trkpt lat="46.43942" lon="-1.64481">
        <ele>7.7</ele>
        <time>2018-05-08T13:25:06Z</time>
      </trkpt>
      <trkpt lat="46.43946" lon="-1.64493">
        <ele>7.7</ele>
        <time>2018-05-08T13:25:14Z</time>
      </trkpt>
      <trkpt lat="46.43948" lon="-1.64505">
        <ele>8.3</ele>
        <time>2018-05-08T13:25:22Z</time>
      </trkpt>
      <trkpt lat="46.4395" lon="-1.64519">
        <ele>8.1</ele>
        <time>2018-05-08T13:25:32Z</time>
      </trkpt>
      <trkpt lat="46.43953" lon="-1.64531">
        <ele>7.8</ele>
        <time>2018-05-08T13:25:40Z</time>
      </trkpt>
      <trkpt lat="46.43957" lon="-1.64544">
        <ele>7.6</ele>
        <time>2018-05-08T13:25:49Z</time>
      </trkpt>
      <trkpt lat="46.43959" lon="-1.64556">
        <ele>7.5</ele>
        <time>2018-05-08T13:25:59Z</time>
      </trkpt>
      <trkpt lat="46.43963" lon="-1.64569">
        <ele>7.2</ele>
        <time>2018-05-08T13:26:08Z</time>
      </trkpt>
      <trkpt lat="46.43967" lon="-1.64582">
        <ele>6.8</ele>
        <time>2018-05-08T13:26:17Z</time>
      </trkpt>
      <trkpt lat="46.43971" lon="-1.64596">
        <ele>6.9</ele>
        <time>2018-05-08T13:26:27Z</time>
      </trkpt>
      <trkpt lat="46.43973" lon="-1.6461">
        <ele>7</ele>
        <time>2018-05-08T13:26:37Z</time>
      </trkpt>
      <trkpt lat="46.43977" lon="-1.64622">
        <ele>7</ele>
        <time>2018-05-08T13:26:46Z</time>
      </trkpt>
      <trkpt lat="46.4398" lon="-1.64638">
        <ele>6.9</ele>
        <time>2018-05-08T13:26:56Z</time>
      </trkpt>
      <trkpt lat="46.43981" lon="-1.64652">
        <ele>6.5</ele>
        <time>2018-05-08T13:27:04Z</time>
      </trkpt>
      <trkpt lat="46.43983" lon="-1.64666">
        <ele>6.1</ele>
        <time>2018-05-08T13:27:10Z</time>
      </trkpt>
      <trkpt lat="46.43981" lon="-1.64679">
        <ele>7.7</ele>
        <time>2018-05-08T13:27:18Z</time>
      </trkpt>
      <trkpt lat="46.43982" lon="-1.64694">
        <ele>8.4</ele>
        <time>2018-05-08T13:27:28Z</time>
      </trkpt>
      <trkpt lat="46.43984" lon="-1.64707">
        <ele>8.8</ele>
        <time>2018-05-08T13:27:37Z</time>
      </trkpt>
      <trkpt lat="46.43987" lon="-1.64721">
        <ele>9</ele>
        <time>2018-05-08T13:27:44Z</time>
      </trkpt>
      <trkpt lat="46.43989" lon="-1.64734">
        <ele>9</ele>
        <time>2018-05-08T13:27:53Z</time>
      </trkpt>
      <trkpt lat="46.43993" lon="-1.64745">
        <ele>8.6</ele>
        <time>2018-05-08T13:28:02Z</time>
      </trkpt>
      <trkpt lat="46.43997" lon="-1.64758">
        <ele>9.2</ele>
        <time>2018-05-08T13:28:10Z</time>
      </trkpt>
      <trkpt lat="46.44002" lon="-1.6477">
        <ele>6.6</ele>
        <time>2018-05-08T13:28:19Z</time>
      </trkpt>
      <trkpt lat="46.44008" lon="-1.64781">
        <ele>6.3</ele>
        <time>2018-05-08T13:28:27Z</time>
      </trkpt>
      <trkpt lat="46.44013" lon="-1.64792">
        <ele>6.2</ele>
        <time>2018-05-08T13:28:36Z</time>
      </trkpt>
      <trkpt lat="46.44019" lon="-1.64802">
        <ele>6.2</ele>
        <time>2018-05-08T13:28:43Z</time>
      </trkpt>
      <trkpt lat="46.44023" lon="-1.64814">
        <ele>6.4</ele>
        <time>2018-05-08T13:28:52Z</time>
      </trkpt>
      <trkpt lat="46.44029" lon="-1.64825">
        <ele>6.2</ele>
        <time>2018-05-08T13:29:01Z</time>
      </trkpt>
      <trkpt lat="46.44037" lon="-1.64833">
        <ele>5.6</ele>
        <time>2018-05-08T13:29:11Z</time>
      </trkpt>
      <trkpt lat="46.44046" lon="-1.64837">
        <ele>5.2</ele>
        <time>2018-05-08T13:29:19Z</time>
      </trkpt>
      <trkpt lat="46.44056" lon="-1.64839">
        <ele>4.3</ele>
        <time>2018-05-08T13:29:27Z</time>
      </trkpt>
      <trkpt lat="46.44066" lon="-1.64841">
        <ele>3.5</ele>
        <time>2018-05-08T13:29:33Z</time>
      </trkpt>
      <trkpt lat="46.44075" lon="-1.64842">
        <ele>2.7</ele>
        <time>2018-05-08T13:29:42Z</time>
      </trkpt>
      <trkpt lat="46.44085" lon="-1.64842">
        <ele>1</ele>
        <time>2018-05-08T13:29:49Z</time>
      </trkpt>
      <trkpt lat="46.44094" lon="-1.64841">
        <ele>1</ele>
        <time>2018-05-08T13:29:57Z</time>
      </trkpt>
      <trkpt lat="46.44103" lon="-1.64841">
        <ele>1</ele>
        <time>2018-05-08T13:30:05Z</time>
      </trkpt>
      <trkpt lat="46.44117" lon="-1.6484">
        <ele>1</ele>
        <time>2018-05-08T13:30:17Z</time>
      </trkpt>
      <trkpt lat="46.44126" lon="-1.64846">
        <ele>1</ele>
        <time>2018-05-08T13:30:27Z</time>
      </trkpt>
      <trkpt lat="46.44132" lon="-1.64859">
        <ele>1</ele>
        <time>2018-05-08T13:30:36Z</time>
      </trkpt>
      <trkpt lat="46.44132" lon="-1.64873">
        <ele>1</ele>
        <time>2018-05-08T13:30:45Z</time>
      </trkpt>
      <trkpt lat="46.44131" lon="-1.64887">
        <ele>1</ele>
        <time>2018-05-08T13:30:53Z</time>
      </trkpt>
      <trkpt lat="46.4413" lon="-1.64902">
        <ele>1</ele>
        <time>2018-05-08T13:31:03Z</time>
      </trkpt>
      <trkpt lat="46.44131" lon="-1.64916">
        <ele>1</ele>
        <time>2018-05-08T13:31:12Z</time>
      </trkpt>
      <trkpt lat="46.4413" lon="-1.6493">
        <ele>1.3</ele>
        <time>2018-05-08T13:31:20Z</time>
      </trkpt>
      <trkpt lat="46.44133" lon="-1.64943">
        <ele>1.3</ele>
        <time>2018-05-08T13:31:28Z</time>
      </trkpt>
      <trkpt lat="46.44135" lon="-1.64956">
        <ele>1.3</ele>
        <time>2018-05-08T13:31:36Z</time>
      </trkpt>
      <trkpt lat="46.44136" lon="-1.64966">
        <ele>1.3</ele>
        <time>2018-05-08T13:31:42Z</time>
      </trkpt>
      <trkpt lat="46.44136" lon="-1.64966">
        <ele>1.3</ele>
        <time>2018-05-08T13:31:42Z</time>
      </trkpt>
      <trkpt lat="46.44162" lon="-1.64999">
        <ele>1.1</ele>
        <time>2018-05-08T13:32:13Z</time>
      </trkpt>
      <trkpt lat="46.44159" lon="-1.65012">
        <ele>1.2</ele>
        <time>2018-05-08T13:32:14Z</time>
      </trkpt>
      <trkpt lat="46.4416" lon="-1.65026">
        <ele>1.4</ele>
        <time>2018-05-08T13:32:27Z</time>
      </trkpt>
      <trkpt lat="46.44163" lon="-1.65039">
        <ele>1.5</ele>
        <time>2018-05-08T13:32:36Z</time>
      </trkpt>
      <trkpt lat="46.44165" lon="-1.65051">
        <ele>1.5</ele>
        <time>2018-05-08T13:32:44Z</time>
      </trkpt>
      <trkpt lat="46.44168" lon="-1.65064">
        <ele>1.6</ele>
        <time>2018-05-08T13:32:52Z</time>
      </trkpt>
      <trkpt lat="46.44172" lon="-1.65076">
        <ele>1.6</ele>
        <time>2018-05-08T13:33:00Z</time>
      </trkpt>
      <trkpt lat="46.44177" lon="-1.65088">
        <ele>1.6</ele>
        <time>2018-05-08T13:33:08Z</time>
      </trkpt>
      <trkpt lat="46.44185" lon="-1.65096">
        <ele>1.6</ele>
        <time>2018-05-08T13:33:17Z</time>
      </trkpt>
      <trkpt lat="46.44193" lon="-1.65104">
        <ele>1.6</ele>
        <time>2018-05-08T13:33:27Z</time>
      </trkpt>
      <trkpt lat="46.44202" lon="-1.65109">
        <ele>1.6</ele>
        <time>2018-05-08T13:33:37Z</time>
      </trkpt>
      <trkpt lat="46.44204" lon="-1.65111">
        <ele>1.6</ele>
        <time>2018-05-08T13:33:44Z</time>
      </trkpt>
      <trkpt lat="46.44204" lon="-1.65111">
        <ele>1.6</ele>
        <time>2018-05-08T13:33:44Z</time>
      </trkpt>
      <trkpt lat="46.44211" lon="-1.6512">
        <ele>1.5</ele>
        <time>2018-05-08T13:34:04Z</time>
      </trkpt>
      <trkpt lat="46.4421" lon="-1.65133">
        <ele>1.5</ele>
        <time>2018-05-08T13:34:20Z</time>
      </trkpt>
      <trkpt lat="46.4421" lon="-1.65133">
        <ele>1.5</ele>
        <time>2018-05-08T13:34:23Z</time>
      </trkpt>
      <trkpt lat="46.4421" lon="-1.65133">
        <ele>1.5</ele>
        <time>2018-05-08T13:34:23Z</time>
      </trkpt>
      <trkpt lat="46.44213" lon="-1.65124">
        <ele>1.5</ele>
        <time>2018-05-08T13:34:49Z</time>
      </trkpt>
      <trkpt lat="46.44213" lon="-1.65124">
        <ele>1.5</ele>
        <time>2018-05-08T13:34:49Z</time>
      </trkpt>
      <trkpt lat="46.44209" lon="-1.65137">
        <ele>1.4</ele>
        <time>2018-05-08T13:36:57Z</time>
      </trkpt>
      <trkpt lat="46.442" lon="-1.65142">
        <ele>1.4</ele>
        <time>2018-05-08T13:37:06Z</time>
      </trkpt>
      <trkpt lat="46.44191" lon="-1.65148">
        <ele>1.4</ele>
        <time>2018-05-08T13:37:16Z</time>
      </trkpt>
      <trkpt lat="46.44183" lon="-1.65154">
        <ele>1.4</ele>
        <time>2018-05-08T13:37:25Z</time>
      </trkpt>
      <trkpt lat="46.44175" lon="-1.6516">
        <ele>1.4</ele>
        <time>2018-05-08T13:37:34Z</time>
      </trkpt>
      <trkpt lat="46.44167" lon="-1.65168">
        <ele>1</ele>
        <time>2018-05-08T13:37:42Z</time>
      </trkpt>
      <trkpt lat="46.44159" lon="-1.65175">
        <ele>3.4</ele>
        <time>2018-05-08T13:37:51Z</time>
      </trkpt>
      <trkpt lat="46.4415" lon="-1.65183">
        <ele>3.4</ele>
        <time>2018-05-08T13:38:01Z</time>
      </trkpt>
      <trkpt lat="46.44141" lon="-1.6519">
        <ele>3.4</ele>
        <time>2018-05-08T13:38:10Z</time>
      </trkpt>
      <trkpt lat="46.44134" lon="-1.652">
        <ele>3.5</ele>
        <time>2018-05-08T13:38:18Z</time>
      </trkpt>
      <trkpt lat="46.44127" lon="-1.65208">
        <ele>3.5</ele>
        <time>2018-05-08T13:38:27Z</time>
      </trkpt>
      <trkpt lat="46.44119" lon="-1.65216">
        <ele>3.6</ele>
        <time>2018-05-08T13:38:35Z</time>
      </trkpt>
      <trkpt lat="46.4411" lon="-1.65224">
        <ele>3.6</ele>
        <time>2018-05-08T13:38:45Z</time>
      </trkpt>
      <trkpt lat="46.44102" lon="-1.65231">
        <ele>3.7</ele>
        <time>2018-05-08T13:38:57Z</time>
      </trkpt>
      <trkpt lat="46.44102" lon="-1.65232">
        <ele>3.7</ele>
        <time>2018-05-08T13:38:58Z</time>
      </trkpt>
      <trkpt lat="46.44102" lon="-1.65232">
        <ele>3.7</ele>
        <time>2018-05-08T13:38:58Z</time>
      </trkpt>
      <trkpt lat="46.44096" lon="-1.65239">
        <ele>3.8</ele>
        <time>2018-05-08T13:39:30Z</time>
      </trkpt>
      <trkpt lat="46.44096" lon="-1.65239">
        <ele>3.8</ele>
        <time>2018-05-08T13:39:30Z</time>
      </trkpt>
      <trkpt lat="46.44087" lon="-1.65241">
        <ele>3.9</ele>
        <time>2018-05-08T13:39:47Z</time>
      </trkpt>
      <trkpt lat="46.44078" lon="-1.65246">
        <ele>5.2</ele>
        <time>2018-05-08T13:39:55Z</time>
      </trkpt>
      <trkpt lat="46.4407" lon="-1.65253">
        <ele>6.9</ele>
        <time>2018-05-08T13:40:03Z</time>
      </trkpt>
      <trkpt lat="46.44061" lon="-1.65254">
        <ele>8.2</ele>
        <time>2018-05-08T13:40:10Z</time>
      </trkpt>
      <trkpt lat="46.44051" lon="-1.65258">
        <ele>9.5</ele>
        <time>2018-05-08T13:40:20Z</time>
      </trkpt>
      <trkpt lat="46.44041" lon="-1.65263">
        <ele>10.6</ele>
        <time>2018-05-08T13:40:30Z</time>
      </trkpt>
      <trkpt lat="46.44033" lon="-1.65271">
        <ele>11.3</ele>
        <time>2018-05-08T13:40:36Z</time>
      </trkpt>
      <trkpt lat="46.44025" lon="-1.65277">
        <ele>11.9</ele>
        <time>2018-05-08T13:40:44Z</time>
      </trkpt>
      <trkpt lat="46.44024" lon="-1.65291">
        <ele>12</ele>
        <time>2018-05-08T13:40:56Z</time>
      </trkpt>
      <trkpt lat="46.44021" lon="-1.65304">
        <ele>12.5</ele>
        <time>2018-05-08T13:41:05Z</time>
      </trkpt>
      <trkpt lat="46.44022" lon="-1.6532">
        <ele>13.1</ele>
        <time>2018-05-08T13:41:14Z</time>
      </trkpt>
      <trkpt lat="46.44021" lon="-1.65333">
        <ele>13.7</ele>
        <time>2018-05-08T13:41:22Z</time>
      </trkpt>
      <trkpt lat="46.44022" lon="-1.65348">
        <ele>14</ele>
        <time>2018-05-08T13:41:31Z</time>
      </trkpt>
      <trkpt lat="46.44018" lon="-1.65359">
        <ele>14</ele>
        <time>2018-05-08T13:41:37Z</time>
      </trkpt>
      <trkpt lat="46.44025" lon="-1.65367">
        <ele>13.4</ele>
        <time>2018-05-08T13:41:42Z</time>
      </trkpt>
      <trkpt lat="46.44022" lon="-1.65382">
        <ele>13.7</ele>
        <time>2018-05-08T13:41:49Z</time>
      </trkpt>
      <trkpt lat="46.44022" lon="-1.65396">
        <ele>14.2</ele>
        <time>2018-05-08T13:41:59Z</time>
      </trkpt>
      <trkpt lat="46.44018" lon="-1.6541">
        <ele>15.3</ele>
        <time>2018-05-08T13:42:07Z</time>
      </trkpt>
      <trkpt lat="46.44014" lon="-1.65423">
        <ele>15.8</ele>
        <time>2018-05-08T13:42:17Z</time>
      </trkpt>
      <trkpt lat="46.44015" lon="-1.65438">
        <ele>14.6</ele>
        <time>2018-05-08T13:42:25Z</time>
      </trkpt>
      <trkpt lat="46.44012" lon="-1.65451">
        <ele>14.1</ele>
        <time>2018-05-08T13:42:33Z</time>
      </trkpt>
      <trkpt lat="46.44012" lon="-1.65465">
        <ele>13.8</ele>
        <time>2018-05-08T13:42:41Z</time>
      </trkpt>
      <trkpt lat="46.44008" lon="-1.65477">
        <ele>14</ele>
        <time>2018-05-08T13:42:51Z</time>
      </trkpt>
      <trkpt lat="46.44009" lon="-1.65491">
        <ele>14.6</ele>
        <time>2018-05-08T13:42:58Z</time>
      </trkpt>
      <trkpt lat="46.44008" lon="-1.65504">
        <ele>14.6</ele>
        <time>2018-05-08T13:43:07Z</time>
      </trkpt>
      <trkpt lat="46.44006" lon="-1.65518">
        <ele>13.8</ele>
        <time>2018-05-08T13:43:15Z</time>
      </trkpt>
      <trkpt lat="46.44004" lon="-1.65531">
        <ele>13.4</ele>
        <time>2018-05-08T13:43:23Z</time>
      </trkpt>
      <trkpt lat="46.44003" lon="-1.65545">
        <ele>13.4</ele>
        <time>2018-05-08T13:43:30Z</time>
      </trkpt>
      <trkpt lat="46.44004" lon="-1.65558">
        <ele>13.8</ele>
        <time>2018-05-08T13:43:38Z</time>
      </trkpt>
      <trkpt lat="46.44005" lon="-1.65573">
        <ele>15</ele>
        <time>2018-05-08T13:43:47Z</time>
      </trkpt>
      <trkpt lat="46.44003" lon="-1.65586">
        <ele>16.2</ele>
        <time>2018-05-08T13:43:54Z</time>
      </trkpt>
      <trkpt lat="46.44005" lon="-1.656">
        <ele>14.4</ele>
        <time>2018-05-08T13:44:03Z</time>
      </trkpt>
      <trkpt lat="46.44006" lon="-1.65613">
        <ele>13.5</ele>
        <time>2018-05-08T13:44:11Z</time>
      </trkpt>
      <trkpt lat="46.44006" lon="-1.65626">
        <ele>13.3</ele>
        <time>2018-05-08T13:44:19Z</time>
      </trkpt>
      <trkpt lat="46.44004" lon="-1.65639">
        <ele>13.5</ele>
        <time>2018-05-08T13:44:28Z</time>
      </trkpt>
      <trkpt lat="46.44006" lon="-1.65652">
        <ele>14</ele>
        <time>2018-05-08T13:44:35Z</time>
      </trkpt>
      <trkpt lat="46.44005" lon="-1.65666">
        <ele>15.2</ele>
        <time>2018-05-08T13:44:42Z</time>
      </trkpt>
      <trkpt lat="46.44006" lon="-1.65681">
        <ele>14.1</ele>
        <time>2018-05-08T13:44:53Z</time>
      </trkpt>
      <trkpt lat="46.44006" lon="-1.65695">
        <ele>13.4</ele>
        <time>2018-05-08T13:45:01Z</time>
      </trkpt>
      <trkpt lat="46.44008" lon="-1.65712">
        <ele>13.2</ele>
        <time>2018-05-08T13:45:11Z</time>
      </trkpt>
      <trkpt lat="46.44007" lon="-1.65725">
        <ele>13.5</ele>
        <time>2018-05-08T13:45:21Z</time>
      </trkpt>
      <trkpt lat="46.44007" lon="-1.6574">
        <ele>14.4</ele>
        <time>2018-05-08T13:45:28Z</time>
      </trkpt>
      <trkpt lat="46.44006" lon="-1.65754">
        <ele>15.1</ele>
        <time>2018-05-08T13:45:35Z</time>
      </trkpt>
      <trkpt lat="46.44011" lon="-1.65766">
        <ele>14.2</ele>
        <time>2018-05-08T13:45:43Z</time>
      </trkpt>
      <trkpt lat="46.44009" lon="-1.6578">
        <ele>13.9</ele>
        <time>2018-05-08T13:46:05Z</time>
      </trkpt>
      <trkpt lat="46.44011" lon="-1.65793">
        <ele>13.8</ele>
        <time>2018-05-08T13:46:10Z</time>
      </trkpt>
      <trkpt lat="46.44011" lon="-1.65808">
        <ele>14.2</ele>
        <time>2018-05-08T13:46:17Z</time>
      </trkpt>
      <trkpt lat="46.44011" lon="-1.65823">
        <ele>15</ele>
        <time>2018-05-08T13:46:23Z</time>
      </trkpt>
      <trkpt lat="46.44015" lon="-1.65836">
        <ele>15.1</ele>
        <time>2018-05-08T13:46:31Z</time>
      </trkpt>
      <trkpt lat="46.44011" lon="-1.65849">
        <ele>15</ele>
        <time>2018-05-08T13:46:37Z</time>
      </trkpt>
      <trkpt lat="46.44013" lon="-1.65862">
        <ele>14.5</ele>
        <time>2018-05-08T13:46:47Z</time>
      </trkpt>
      <trkpt lat="46.44015" lon="-1.65876">
        <ele>14.3</ele>
        <time>2018-05-08T13:46:54Z</time>
      </trkpt>
      <trkpt lat="46.44016" lon="-1.65889">
        <ele>14.5</ele>
        <time>2018-05-08T13:47:01Z</time>
      </trkpt>
      <trkpt lat="46.44019" lon="-1.65902">
        <ele>14.8</ele>
        <time>2018-05-08T13:47:10Z</time>
      </trkpt>
      <trkpt lat="46.44023" lon="-1.65915">
        <ele>14.7</ele>
        <time>2018-05-08T13:47:18Z</time>
      </trkpt>
      <trkpt lat="46.44025" lon="-1.65928">
        <ele>14.6</ele>
        <time>2018-05-08T13:47:28Z</time>
      </trkpt>
      <trkpt lat="46.44032" lon="-1.65937">
        <ele>13.9</ele>
        <time>2018-05-08T13:47:35Z</time>
      </trkpt>
      <trkpt lat="46.44036" lon="-1.6595">
        <ele>13.6</ele>
        <time>2018-05-08T13:47:44Z</time>
      </trkpt>
      <trkpt lat="46.44037" lon="-1.65965">
        <ele>13.5</ele>
        <time>2018-05-08T13:47:55Z</time>
      </trkpt>
      <trkpt lat="46.4404" lon="-1.65977">
        <ele>13.4</ele>
        <time>2018-05-08T13:48:01Z</time>
      </trkpt>
      <trkpt lat="46.4404" lon="-1.65991">
        <ele>13.5</ele>
        <time>2018-05-08T13:48:08Z</time>
      </trkpt>
      <trkpt lat="46.4404" lon="-1.66005">
        <ele>13.6</ele>
        <time>2018-05-08T13:48:17Z</time>
      </trkpt>
      <trkpt lat="46.44039" lon="-1.6602">
        <ele>13.7</ele>
        <time>2018-05-08T13:48:26Z</time>
      </trkpt>
      <trkpt lat="46.44041" lon="-1.66034">
        <ele>13.5</ele>
        <time>2018-05-08T13:48:36Z</time>
      </trkpt>
      <trkpt lat="46.44038" lon="-1.66047">
        <ele>13.7</ele>
        <time>2018-05-08T13:48:45Z</time>
      </trkpt>
      <trkpt lat="46.44038" lon="-1.66047">
        <ele>13.7</ele>
        <time>2018-05-08T13:48:50Z</time>
      </trkpt>
      <trkpt lat="46.44038" lon="-1.66047">
        <ele>13.7</ele>
        <time>2018-05-08T13:48:50Z</time>
      </trkpt>
      <trkpt lat="46.44035" lon="-1.66061">
        <ele>14</ele>
        <time>2018-05-08T13:49:05Z</time>
      </trkpt>
      <trkpt lat="46.44032" lon="-1.66073">
        <ele>14.4</ele>
        <time>2018-05-08T13:49:14Z</time>
      </trkpt>
      <trkpt lat="46.4403" lon="-1.66087">
        <ele>13.9</ele>
        <time>2018-05-08T13:49:22Z</time>
      </trkpt>
      <trkpt lat="46.44026" lon="-1.66099">
        <ele>14</ele>
        <time>2018-05-08T13:49:31Z</time>
      </trkpt>
      <trkpt lat="46.44024" lon="-1.66112">
        <ele>13.7</ele>
        <time>2018-05-08T13:49:43Z</time>
      </trkpt>
      <trkpt lat="46.44018" lon="-1.66123">
        <ele>13.7</ele>
        <time>2018-05-08T13:49:50Z</time>
      </trkpt>
      <trkpt lat="46.44019" lon="-1.66138">
        <ele>13.4</ele>
        <time>2018-05-08T13:49:59Z</time>
      </trkpt>
      <trkpt lat="46.44013" lon="-1.6615">
        <ele>13.9</ele>
        <time>2018-05-08T13:50:05Z</time>
      </trkpt>
      <trkpt lat="46.44012" lon="-1.66163">
        <ele>14.5</ele>
        <time>2018-05-08T13:50:12Z</time>
      </trkpt>
      <trkpt lat="46.44011" lon="-1.66177">
        <ele>13.1</ele>
        <time>2018-05-08T13:50:23Z</time>
      </trkpt>
      <trkpt lat="46.44009" lon="-1.6619">
        <ele>12</ele>
        <time>2018-05-08T13:50:33Z</time>
      </trkpt>
      <trkpt lat="46.44003" lon="-1.66201">
        <ele>11.5</ele>
        <time>2018-05-08T13:50:40Z</time>
      </trkpt>
      <trkpt lat="46.43998" lon="-1.66212">
        <ele>13.3</ele>
        <time>2018-05-08T13:50:47Z</time>
      </trkpt>
      <trkpt lat="46.43995" lon="-1.66224">
        <ele>12.8</ele>
        <time>2018-05-08T13:50:57Z</time>
      </trkpt>
      <trkpt lat="46.43986" lon="-1.66223">
        <ele>13</ele>
        <time>2018-05-08T13:51:08Z</time>
      </trkpt>
      <trkpt lat="46.43977" lon="-1.66227">
        <ele>13</ele>
        <time>2018-05-08T13:51:15Z</time>
      </trkpt>
      <trkpt lat="46.43974" lon="-1.66231">
        <ele>12.9</ele>
        <time>2018-05-08T13:51:22Z</time>
      </trkpt>
      <trkpt lat="46.43974" lon="-1.66231">
        <ele>12.9</ele>
        <time>2018-05-08T13:51:22Z</time>
      </trkpt>
      <trkpt lat="46.43976" lon="-1.66238">
        <ele>12.7</ele>
        <time>2018-05-08T13:51:58Z</time>
      </trkpt>
      <trkpt lat="46.43976" lon="-1.66238">
        <ele>12.7</ele>
        <time>2018-05-08T13:51:58Z</time>
      </trkpt>
      <trkpt lat="46.43976" lon="-1.66251">
        <ele>11.1</ele>
        <time>2018-05-08T13:54:01Z</time>
      </trkpt>
      <trkpt lat="46.43976" lon="-1.66252">
        <ele>11.1</ele>
        <time>2018-05-08T13:54:06Z</time>
      </trkpt>
      <trkpt lat="46.43976" lon="-1.66252">
        <ele>11.1</ele>
        <time>2018-05-08T13:54:06Z</time>
      </trkpt>
      <trkpt lat="46.43967" lon="-1.66256">
        <ele>11.2</ele>
        <time>2018-05-08T13:55:20Z</time>
      </trkpt>
      <trkpt lat="46.43958" lon="-1.66259">
        <ele>11.3</ele>
        <time>2018-05-08T13:55:32Z</time>
      </trkpt>
      <trkpt lat="46.43948" lon="-1.66261">
        <ele>11.5</ele>
        <time>2018-05-08T13:55:40Z</time>
      </trkpt>
      <trkpt lat="46.43938" lon="-1.66262">
        <ele>11.8</ele>
        <time>2018-05-08T13:55:49Z</time>
      </trkpt>
      <trkpt lat="46.43929" lon="-1.66265">
        <ele>11.9</ele>
        <time>2018-05-08T13:55:57Z</time>
      </trkpt>
      <trkpt lat="46.43918" lon="-1.66269">
        <ele>12</ele>
        <time>2018-05-08T13:56:03Z</time>
      </trkpt>
      <trkpt lat="46.43908" lon="-1.66272">
        <ele>11.5</ele>
        <time>2018-05-08T13:56:18Z</time>
      </trkpt>
      <trkpt lat="46.43898" lon="-1.66276">
        <ele>11.1</ele>
        <time>2018-05-08T13:56:26Z</time>
      </trkpt>
      <trkpt lat="46.43891" lon="-1.66283">
        <ele>10.9</ele>
        <time>2018-05-08T13:56:33Z</time>
      </trkpt>
      <trkpt lat="46.43882" lon="-1.66285">
        <ele>10.7</ele>
        <time>2018-05-08T13:56:42Z</time>
      </trkpt>
      <trkpt lat="46.43876" lon="-1.66295">
        <ele>10.5</ele>
        <time>2018-05-08T13:56:49Z</time>
      </trkpt>
      <trkpt lat="46.43872" lon="-1.66307">
        <ele>10.4</ele>
        <time>2018-05-08T13:56:59Z</time>
      </trkpt>
      <trkpt lat="46.43873" lon="-1.66321">
        <ele>10.3</ele>
        <time>2018-05-08T13:57:09Z</time>
      </trkpt>
      <trkpt lat="46.43871" lon="-1.66336">
        <ele>10.2</ele>
        <time>2018-05-08T13:57:18Z</time>
      </trkpt>
      <trkpt lat="46.43877" lon="-1.66346">
        <ele>10.4</ele>
        <time>2018-05-08T13:57:26Z</time>
      </trkpt>
      <trkpt lat="46.43888" lon="-1.6635">
        <ele>10.6</ele>
        <time>2018-05-08T13:57:35Z</time>
      </trkpt>
      <trkpt lat="46.43898" lon="-1.66349">
        <ele>10.7</ele>
        <time>2018-05-08T13:57:45Z</time>
      </trkpt>
      <trkpt lat="46.43905" lon="-1.66349">
        <ele>10.7</ele>
        <time>2018-05-08T13:58:01Z</time>
      </trkpt>
      <trkpt lat="46.43905" lon="-1.66349">
        <ele>10.7</ele>
        <time>2018-05-08T13:58:01Z</time>
      </trkpt>
      <trkpt lat="46.43902" lon="-1.66363">
        <ele>10.7</ele>
        <time>2018-05-08T13:58:15Z</time>
      </trkpt>
      <trkpt lat="46.43901" lon="-1.66377">
        <ele>10.8</ele>
        <time>2018-05-08T13:58:26Z</time>
      </trkpt>
      <trkpt lat="46.43897" lon="-1.66389">
        <ele>10.9</ele>
        <time>2018-05-08T13:58:37Z</time>
      </trkpt>
      <trkpt lat="46.43895" lon="-1.66402">
        <ele>11</ele>
        <time>2018-05-08T13:58:49Z</time>
      </trkpt>
      <trkpt lat="46.43895" lon="-1.66416">
        <ele>11.1</ele>
        <time>2018-05-08T13:58:59Z</time>
      </trkpt>
      <trkpt lat="46.43893" lon="-1.66431">
        <ele>12</ele>
        <time>2018-05-08T13:59:09Z</time>
      </trkpt>
      <trkpt lat="46.43895" lon="-1.66443">
        <ele>12.1</ele>
        <time>2018-05-08T13:59:27Z</time>
      </trkpt>
      <trkpt lat="46.43897" lon="-1.66457">
        <ele>12.3</ele>
        <time>2018-05-08T13:59:33Z</time>
      </trkpt>
      <trkpt lat="46.43895" lon="-1.6647">
        <ele>12.6</ele>
        <time>2018-05-08T13:59:42Z</time>
      </trkpt>
      <trkpt lat="46.43893" lon="-1.66483">
        <ele>12.8</ele>
        <time>2018-05-08T13:59:53Z</time>
      </trkpt>
      <trkpt lat="46.43891" lon="-1.66498">
        <ele>13</ele>
        <time>2018-05-08T14:00:03Z</time>
      </trkpt>
      <trkpt lat="46.4389" lon="-1.66511">
        <ele>13.9</ele>
        <time>2018-05-08T14:00:10Z</time>
      </trkpt>
      <trkpt lat="46.43891" lon="-1.66525">
        <ele>13.9</ele>
        <time>2018-05-08T14:00:19Z</time>
      </trkpt>
      <trkpt lat="46.43894" lon="-1.66539">
        <ele>14</ele>
        <time>2018-05-08T14:00:28Z</time>
      </trkpt>
      <trkpt lat="46.43894" lon="-1.66552">
        <ele>14.2</ele>
        <time>2018-05-08T14:00:36Z</time>
      </trkpt>
      <trkpt lat="46.43892" lon="-1.66566">
        <ele>14.4</ele>
        <time>2018-05-08T14:00:49Z</time>
      </trkpt>
      <trkpt lat="46.43892" lon="-1.66583">
        <ele>14.7</ele>
        <time>2018-05-08T14:01:00Z</time>
      </trkpt>
      <trkpt lat="46.43891" lon="-1.66585">
        <ele>15.2</ele>
        <time>2018-05-08T14:01:26Z</time>
      </trkpt>
      <trkpt lat="46.43891" lon="-1.66585">
        <ele>15.2</ele>
        <time>2018-05-08T14:01:26Z</time>
      </trkpt>
      <trkpt lat="46.43888" lon="-1.66598">
        <ele>15</ele>
        <time>2018-05-08T14:02:59Z</time>
      </trkpt>
      <trkpt lat="46.43889" lon="-1.66612">
        <ele>15</ele>
        <time>2018-05-08T14:03:06Z</time>
      </trkpt>
      <trkpt lat="46.43892" lon="-1.66625">
        <ele>15.1</ele>
        <time>2018-05-08T14:03:13Z</time>
      </trkpt>
      <trkpt lat="46.43896" lon="-1.66637">
        <ele>15.4</ele>
        <time>2018-05-08T14:03:20Z</time>
      </trkpt>
      <trkpt lat="46.43899" lon="-1.6665">
        <ele>15.8</ele>
        <time>2018-05-08T14:03:27Z</time>
      </trkpt>
      <trkpt lat="46.439" lon="-1.66653">
        <ele>16</ele>
        <time>2018-05-08T14:03:36Z</time>
      </trkpt>
      <trkpt lat="46.439" lon="-1.66653">
        <ele>16</ele>
        <time>2018-05-08T14:03:36Z</time>
      </trkpt>
      <trkpt lat="46.43897" lon="-1.66671">
        <ele>15.9</ele>
        <time>2018-05-08T14:05:35Z</time>
      </trkpt>
      <trkpt lat="46.43895" lon="-1.66684">
        <ele>15.5</ele>
        <time>2018-05-08T14:05:43Z</time>
      </trkpt>
      <trkpt lat="46.43895" lon="-1.66698">
        <ele>15.2</ele>
        <time>2018-05-08T14:05:51Z</time>
      </trkpt>
      <trkpt lat="46.43901" lon="-1.66708">
        <ele>15.3</ele>
        <time>2018-05-08T14:05:59Z</time>
      </trkpt>
      <trkpt lat="46.43901" lon="-1.66722">
        <ele>15.4</ele>
        <time>2018-05-08T14:06:11Z</time>
      </trkpt>
      <trkpt lat="46.43901" lon="-1.66735">
        <ele>15.7</ele>
        <time>2018-05-08T14:06:23Z</time>
      </trkpt>
      <trkpt lat="46.43902" lon="-1.66749">
        <ele>16.2</ele>
        <time>2018-05-08T14:06:38Z</time>
      </trkpt>
      <trkpt lat="46.43897" lon="-1.66761">
        <ele>15.2</ele>
        <time>2018-05-08T14:06:49Z</time>
      </trkpt>
      <trkpt lat="46.43892" lon="-1.66773">
        <ele>14.6</ele>
        <time>2018-05-08T14:07:00Z</time>
      </trkpt>
      <trkpt lat="46.43888" lon="-1.66786">
        <ele>14.2</ele>
        <time>2018-05-08T14:07:12Z</time>
      </trkpt>
      <trkpt lat="46.43884" lon="-1.66798">
        <ele>14</ele>
        <time>2018-05-08T14:07:22Z</time>
      </trkpt>
      <trkpt lat="46.43873" lon="-1.66799">
        <ele>13.4</ele>
        <time>2018-05-08T14:07:33Z</time>
      </trkpt>
      <trkpt lat="46.43864" lon="-1.66805">
        <ele>12.9</ele>
        <time>2018-05-08T14:07:43Z</time>
      </trkpt>
      <trkpt lat="46.43856" lon="-1.66811">
        <ele>12.3</ele>
        <time>2018-05-08T14:07:51Z</time>
      </trkpt>
      <trkpt lat="46.43847" lon="-1.66813">
        <ele>11.7</ele>
        <time>2018-05-08T14:08:04Z</time>
      </trkpt>
      <trkpt lat="46.43838" lon="-1.66816">
        <ele>11.1</ele>
        <time>2018-05-08T14:08:15Z</time>
      </trkpt>
      <trkpt lat="46.43828" lon="-1.66812">
        <ele>9</ele>
        <time>2018-05-08T14:08:29Z</time>
      </trkpt>
      <trkpt lat="46.43826" lon="-1.66799">
        <ele>9</ele>
        <time>2018-05-08T14:08:38Z</time>
      </trkpt>
      <trkpt lat="46.43823" lon="-1.66786">
        <ele>9</ele>
        <time>2018-05-08T14:08:50Z</time>
      </trkpt>
      <trkpt lat="46.43824" lon="-1.66773">
        <ele>9</ele>
        <time>2018-05-08T14:08:58Z</time>
      </trkpt>
      <trkpt lat="46.43824" lon="-1.66759">
        <ele>9</ele>
        <time>2018-05-08T14:09:08Z</time>
      </trkpt>
      <trkpt lat="46.43819" lon="-1.66748">
        <ele>8.7</ele>
        <time>2018-05-08T14:09:20Z</time>
      </trkpt>
      <trkpt lat="46.43815" lon="-1.66736">
        <ele>8.5</ele>
        <time>2018-05-08T14:09:30Z</time>
      </trkpt>
      <trkpt lat="46.4381" lon="-1.66725">
        <ele>8.4</ele>
        <time>2018-05-08T14:09:39Z</time>
      </trkpt>
      <trkpt lat="46.43806" lon="-1.66713">
        <ele>8.3</ele>
        <time>2018-05-08T14:09:47Z</time>
      </trkpt>
      <trkpt lat="46.438" lon="-1.66703">
        <ele>8</ele>
        <time>2018-05-08T14:09:58Z</time>
      </trkpt>
      <trkpt lat="46.43793" lon="-1.66693">
        <ele>7.6</ele>
        <time>2018-05-08T14:10:12Z</time>
      </trkpt>
      <trkpt lat="46.43786" lon="-1.66683">
        <ele>7</ele>
        <time>2018-05-08T14:10:25Z</time>
      </trkpt>
      <trkpt lat="46.43779" lon="-1.66673">
        <ele>6.1</ele>
        <time>2018-05-08T14:10:36Z</time>
      </trkpt>
      <trkpt lat="46.43773" lon="-1.66663">
        <ele>5.7</ele>
        <time>2018-05-08T14:10:47Z</time>
      </trkpt>
      <trkpt lat="46.43767" lon="-1.66651">
        <ele>5.6</ele>
        <time>2018-05-08T14:10:57Z</time>
      </trkpt>
      <trkpt lat="46.43759" lon="-1.66644">
        <ele>5.6</ele>
        <time>2018-05-08T14:11:06Z</time>
      </trkpt>
      <trkpt lat="46.43752" lon="-1.66635">
        <ele>5.9</ele>
        <time>2018-05-08T14:11:15Z</time>
      </trkpt>
      <trkpt lat="46.43747" lon="-1.66624">
        <ele>4</ele>
        <time>2018-05-08T14:11:24Z</time>
      </trkpt>
      <trkpt lat="46.43742" lon="-1.66613">
        <ele>4.6</ele>
        <time>2018-05-08T14:11:32Z</time>
      </trkpt>
      <trkpt lat="46.43736" lon="-1.66601">
        <ele>5</ele>
        <time>2018-05-08T14:11:40Z</time>
      </trkpt>
      <trkpt lat="46.43731" lon="-1.6659">
        <ele>5.2</ele>
        <time>2018-05-08T14:11:47Z</time>
      </trkpt>
      <trkpt lat="46.43725" lon="-1.66579">
        <ele>6.1</ele>
        <time>2018-05-08T14:11:54Z</time>
      </trkpt>
      <trkpt lat="46.43723" lon="-1.66565">
        <ele>6.1</ele>
        <time>2018-05-08T14:12:02Z</time>
      </trkpt>
      <trkpt lat="46.43722" lon="-1.66558">
        <ele>6.1</ele>
        <time>2018-05-08T14:12:14Z</time>
      </trkpt>
      <trkpt lat="46.43722" lon="-1.66558">
        <ele>6.1</ele>
        <time>2018-05-08T14:12:14Z</time>
      </trkpt>
      <trkpt lat="46.43731" lon="-1.66551">
        <ele>6.2</ele>
        <time>2018-05-08T14:12:33Z</time>
      </trkpt>
      <trkpt lat="46.43737" lon="-1.66541">
        <ele>6.4</ele>
        <time>2018-05-08T14:12:43Z</time>
      </trkpt>
      <trkpt lat="46.43737" lon="-1.66541">
        <ele>6.4</ele>
        <time>2018-05-08T14:12:45Z</time>
      </trkpt>
      <trkpt lat="46.43737" lon="-1.66541">
        <ele>6.4</ele>
        <time>2018-05-08T14:12:45Z</time>
      </trkpt>
      <trkpt lat="46.43741" lon="-1.66528">
        <ele>6.7</ele>
        <time>2018-05-08T14:13:10Z</time>
      </trkpt>
      <trkpt lat="46.43746" lon="-1.66516">
        <ele>7.1</ele>
        <time>2018-05-08T14:13:20Z</time>
      </trkpt>
      <trkpt lat="46.43751" lon="-1.66505">
        <ele>8.2</ele>
        <time>2018-05-08T14:13:29Z</time>
      </trkpt>
      <trkpt lat="46.4376" lon="-1.66498">
        <ele>8.7</ele>
        <time>2018-05-08T14:13:39Z</time>
      </trkpt>
      <trkpt lat="46.43766" lon="-1.66487">
        <ele>9.2</ele>
        <time>2018-05-08T14:13:48Z</time>
      </trkpt>
      <trkpt lat="46.43772" lon="-1.66477">
        <ele>9.6</ele>
        <time>2018-05-08T14:13:59Z</time>
      </trkpt>
      <trkpt lat="46.43778" lon="-1.66466">
        <ele>9.8</ele>
        <time>2018-05-08T14:14:10Z</time>
      </trkpt>
      <trkpt lat="46.43784" lon="-1.66456">
        <ele>10</ele>
        <time>2018-05-08T14:14:19Z</time>
      </trkpt>
      <trkpt lat="46.4379" lon="-1.66446">
        <ele>10.1</ele>
        <time>2018-05-08T14:14:27Z</time>
      </trkpt>
      <trkpt lat="46.43795" lon="-1.66433">
        <ele>10.1</ele>
        <time>2018-05-08T14:14:36Z</time>
      </trkpt>
      <trkpt lat="46.43798" lon="-1.6642">
        <ele>10.2</ele>
        <time>2018-05-08T14:14:45Z</time>
      </trkpt>
      <trkpt lat="46.43801" lon="-1.66407">
        <ele>10.6</ele>
        <time>2018-05-08T14:14:55Z</time>
      </trkpt>
      <trkpt lat="46.43801" lon="-1.66394">
        <ele>10.6</ele>
        <time>2018-05-08T14:15:04Z</time>
      </trkpt>
      <trkpt lat="46.43805" lon="-1.66381">
        <ele>10.6</ele>
        <time>2018-05-08T14:15:13Z</time>
      </trkpt>
      <trkpt lat="46.43806" lon="-1.66367">
        <ele>10.5</ele>
        <time>2018-05-08T14:15:21Z</time>
      </trkpt>
      <trkpt lat="46.43809" lon="-1.66355">
        <ele>10.4</ele>
        <time>2018-05-08T14:15:29Z</time>
      </trkpt>
      <trkpt lat="46.43814" lon="-1.66344">
        <ele>10.1</ele>
        <time>2018-05-08T14:15:39Z</time>
      </trkpt>
      <trkpt lat="46.43816" lon="-1.66327">
        <ele>10.2</ele>
        <time>2018-05-08T14:15:57Z</time>
      </trkpt>
      <trkpt lat="46.43809" lon="-1.66318">
        <ele>10.6</ele>
        <time>2018-05-08T14:16:05Z</time>
      </trkpt>
      <trkpt lat="46.43799" lon="-1.66309">
        <ele>11</ele>
        <time>2018-05-08T14:16:15Z</time>
      </trkpt>
      <trkpt lat="46.43791" lon="-1.66302">
        <ele>11.2</ele>
        <time>2018-05-08T14:16:27Z</time>
      </trkpt>
      <trkpt lat="46.43783" lon="-1.66294">
        <ele>11.5</ele>
        <time>2018-05-08T14:16:38Z</time>
      </trkpt>
      <trkpt lat="46.43774" lon="-1.6629">
        <ele>11.7</ele>
        <time>2018-05-08T14:16:45Z</time>
      </trkpt>
      <trkpt lat="46.43765" lon="-1.66285">
        <ele>12</ele>
        <time>2018-05-08T14:16:54Z</time>
      </trkpt>
      <trkpt lat="46.43764" lon="-1.66283">
        <ele>12</ele>
        <time>2018-05-08T14:17:00Z</time>
      </trkpt>
      <trkpt lat="46.43764" lon="-1.66283">
        <ele>12</ele>
        <time>2018-05-08T14:17:00Z</time>
      </trkpt>
      <trkpt lat="46.43757" lon="-1.66272">
        <ele>12.4</ele>
        <time>2018-05-08T14:17:17Z</time>
      </trkpt>
      <trkpt lat="46.43752" lon="-1.66262">
        <ele>13</ele>
        <time>2018-05-08T14:17:31Z</time>
      </trkpt>
      <trkpt lat="46.43747" lon="-1.6625">
        <ele>14</ele>
        <time>2018-05-08T14:17:41Z</time>
      </trkpt>
      <trkpt lat="46.43742" lon="-1.66239">
        <ele>14.5</ele>
        <time>2018-05-08T14:17:49Z</time>
      </trkpt>
      <trkpt lat="46.43735" lon="-1.6623">
        <ele>14.7</ele>
        <time>2018-05-08T14:17:57Z</time>
      </trkpt>
      <trkpt lat="46.43728" lon="-1.66222">
        <ele>14.8</ele>
        <time>2018-05-08T14:18:08Z</time>
      </trkpt>
      <trkpt lat="46.43721" lon="-1.66214">
        <ele>14.9</ele>
        <time>2018-05-08T14:18:19Z</time>
      </trkpt>
      <trkpt lat="46.43712" lon="-1.66207">
        <ele>15</ele>
        <time>2018-05-08T14:18:26Z</time>
      </trkpt>
      <trkpt lat="46.43705" lon="-1.66199">
        <ele>15</ele>
        <time>2018-05-08T14:18:37Z</time>
      </trkpt>
      <trkpt lat="46.43695" lon="-1.66194">
        <ele>15.1</ele>
        <time>2018-05-08T14:18:47Z</time>
      </trkpt>
      <trkpt lat="46.43688" lon="-1.66182">
        <ele>15.1</ele>
        <time>2018-05-08T14:19:00Z</time>
      </trkpt>
      <trkpt lat="46.43689" lon="-1.66167">
        <ele>15.1</ele>
        <time>2018-05-08T14:19:10Z</time>
      </trkpt>
      <trkpt lat="46.43684" lon="-1.66156">
        <ele>15.3</ele>
        <time>2018-05-08T14:19:19Z</time>
      </trkpt>
      <trkpt lat="46.43675" lon="-1.6615">
        <ele>15.3</ele>
        <time>2018-05-08T14:19:30Z</time>
      </trkpt>
      <trkpt lat="46.43666" lon="-1.66155">
        <ele>15.1</ele>
        <time>2018-05-08T14:19:42Z</time>
      </trkpt>
      <trkpt lat="46.43659" lon="-1.66165">
        <ele>15</ele>
        <time>2018-05-08T14:19:53Z</time>
      </trkpt>
      <trkpt lat="46.4365" lon="-1.66165">
        <ele>15</ele>
        <time>2018-05-08T14:20:03Z</time>
      </trkpt>
      <trkpt lat="46.43644" lon="-1.66156">
        <ele>15.1</ele>
        <time>2018-05-08T14:20:12Z</time>
      </trkpt>
      <trkpt lat="46.43638" lon="-1.66145">
        <ele>15.1</ele>
        <time>2018-05-08T14:20:22Z</time>
      </trkpt>
      <trkpt lat="46.43632" lon="-1.66134">
        <ele>15.2</ele>
        <time>2018-05-08T14:20:34Z</time>
      </trkpt>
      <trkpt lat="46.43627" lon="-1.66122">
        <ele>15.3</ele>
        <time>2018-05-08T14:20:43Z</time>
      </trkpt>
      <trkpt lat="46.43619" lon="-1.66116">
        <ele>15.4</ele>
        <time>2018-05-08T14:20:50Z</time>
      </trkpt>
      <trkpt lat="46.4361" lon="-1.66112">
        <ele>15.5</ele>
        <time>2018-05-08T14:21:00Z</time>
      </trkpt>
      <trkpt lat="46.43601" lon="-1.66107">
        <ele>15.7</ele>
        <time>2018-05-08T14:21:09Z</time>
      </trkpt>
      <trkpt lat="46.43593" lon="-1.66101">
        <ele>16</ele>
        <time>2018-05-08T14:21:18Z</time>
      </trkpt>
      <trkpt lat="46.43584" lon="-1.66096">
        <ele>16.3</ele>
        <time>2018-05-08T14:21:27Z</time>
      </trkpt>
      <trkpt lat="46.43578" lon="-1.66087">
        <ele>16.1</ele>
        <time>2018-05-08T14:21:35Z</time>
      </trkpt>
      <trkpt lat="46.43574" lon="-1.66075">
        <ele>16</ele>
        <time>2018-05-08T14:21:46Z</time>
      </trkpt>
      <trkpt lat="46.43568" lon="-1.66064">
        <ele>15.5</ele>
        <time>2018-05-08T14:21:55Z</time>
      </trkpt>
      <trkpt lat="46.43568" lon="-1.66048">
        <ele>15.2</ele>
        <time>2018-05-08T14:22:03Z</time>
      </trkpt>
      <trkpt lat="46.43566" lon="-1.66035">
        <ele>15.2</ele>
        <time>2018-05-08T14:22:10Z</time>
      </trkpt>
      <trkpt lat="46.43566" lon="-1.6602">
        <ele>15.4</ele>
        <time>2018-05-08T14:22:19Z</time>
      </trkpt>
      <trkpt lat="46.43565" lon="-1.66006">
        <ele>15.6</ele>
        <time>2018-05-08T14:22:27Z</time>
      </trkpt>
      <trkpt lat="46.43562" lon="-1.65993">
        <ele>14.8</ele>
        <time>2018-05-08T14:22:36Z</time>
      </trkpt>
      <trkpt lat="46.43557" lon="-1.65981">
        <ele>14.2</ele>
        <time>2018-05-08T14:22:46Z</time>
      </trkpt>
      <trkpt lat="46.43553" lon="-1.65969">
        <ele>13.8</ele>
        <time>2018-05-08T14:22:54Z</time>
      </trkpt>
      <trkpt lat="46.4355" lon="-1.65957">
        <ele>13.5</ele>
        <time>2018-05-08T14:23:08Z</time>
      </trkpt>
      <trkpt lat="46.43549" lon="-1.65943">
        <ele>13.3</ele>
        <time>2018-05-08T14:23:19Z</time>
      </trkpt>
      <trkpt lat="46.43552" lon="-1.6593">
        <ele>13.3</ele>
        <time>2018-05-08T14:23:28Z</time>
      </trkpt>
      <trkpt lat="46.43555" lon="-1.65917">
        <ele>13.4</ele>
        <time>2018-05-08T14:23:39Z</time>
      </trkpt>
      <trkpt lat="46.43558" lon="-1.65904">
        <ele>12.8</ele>
        <time>2018-05-08T14:23:46Z</time>
      </trkpt>
      <trkpt lat="46.43561" lon="-1.659">
        <ele>12.9</ele>
        <time>2018-05-08T14:23:53Z</time>
      </trkpt>
      <trkpt lat="46.43561" lon="-1.659">
        <ele>12.9</ele>
        <time>2018-05-08T14:23:53Z</time>
      </trkpt>
    </trkseg>
  </trk>
</gpx>